YSSY

Sydney Airport

Airport
ICAO code
YSSY
IATA Code
SYD
Summary
ICAO Region
APAC
ICAO Territory
Location

Mascot, New South Wales

Serving
Sydney
Elevation
21 ft
Coordinates
33° 56' 23" S , 151° 10' 32" E
KCC
Airport BS
Bird Strike
Metar
Observation
YSSY 281830Z 04006KT 9999 FEW008 BKN010 25/23 Q1011 RF00.0/000.0 HZ
Station
Sydney Airport
Date/Time
2023-01-28 18:30:00
Wind direction
40°
Wind speed
06 kts
Lowest cloud amount
few clouds
Temperature
25°C
Dew point
23°C
Humidity
88%
QNH
1011 hPa
Weather condition
n/a

SKYbrary Partners:

Safety knowledge contributed by: